sensor_id;sensor_type;location;lat;lon;timestamp;temperature;humidity
53264;DHT22;39153;52.680;6.172;2023-07-13T00:02:16;18.00;99.90
53264;DHT22;39153;52.680;6.172;2023-07-13T00:04:42;18.00;99.90
53264;DHT22;39153;52.680;6.172;2023-07-13T00:07:08;18.00;99.90
53264;DHT22;39153;52.680;6.172;2023-07-13T00:09:34;18.00;99.90
53264;DHT22;39153;52.680;6.172;2023-07-13T00:12:01;18.00;99.90
53264;DHT22;39153;52.680;6.172;2023-07-13T00:14:29;17.90;99.90
53264;DHT22;39153;52.680;6.172;2023-07-13T00:16:55;17.90;99.90
53264;DHT22;39153;52.680;6.172;2023-07-13T00:19:21;17.90;99.90
53264;DHT22;39153;52.680;6.172;2023-07-13T00:21:46;17.80;99.90
53264;DHT22;39153;52.680;6.172;2023-07-13T00:24:16;17.80;99.90
53264;DHT22;39153;52.680;6.172;2023-07-13T00:26:44;17.70;99.90
53264;DHT22;39153;52.680;6.172;2023-07-13T00:29:12;17.70;99.90
53264;DHT22;39153;52.680;6.172;2023-07-13T00:31:38;17.60;99.90
53264;DHT22;39153;52.680;6.172;2023-07-13T00:34:04;17.60;99.90
53264;DHT22;39153;52.680;6.172;2023-07-13T00:36:30;17.70;99.90
53264;DHT22;39153;52.680;6.172;2023-07-13T00:38:56;17.60;99.90
53264;DHT22;39153;52.680;6.172;2023-07-13T00:41:22;17.60;99.90
53264;DHT22;39153;52.680;6.172;2023-07-13T00:43:48;17.60;99.90
53264;DHT22;39153;52.680;6.172;2023-07-13T00:46:21;17.60;99.90
53264;DHT22;39153;52.680;6.172;2023-07-13T00:48:48;17.60;99.90
53264;DHT22;39153;52.680;6.172;2023-07-13T00:51:17;17.60;99.90
53264;DHT22;39153;52.680;6.172;2023-07-13T00:53:44;17.60;99.90
53264;DHT22;39153;52.680;6.172;2023-07-13T00:56:10;17.60;99.90
53264;DHT22;39153;52.680;6.172;2023-07-13T00:58:36;17.60;99.90
53264;DHT22;39153;52.680;6.172;2023-07-13T01:01:02;17.60;99.90
53264;DHT22;39153;52.680;6.172;2023-07-13T01:03:28;17.50;99.90
53264;DHT22;39153;52.680;6.172;2023-07-13T01:05:54;17.50;99.90
53264;DHT22;39153;52.680;6.172;2023-07-13T01:08:21;17.40;99.90
53264;DHT22;39153;52.680;6.172;2023-07-13T01:10:57;17.40;99.90
53264;DHT22;39153;52.680;6.172;2023-07-13T01:13:23;17.40;99.90
53264;DHT22;39153;52.680;6.172;2023-07-13T01:15:51;17.30;99.90
53264;DHT22;39153;52.680;6.172;2023-07-13T01:18:26;17.30;99.90
53264;DHT22;39153;52.680;6.172;2023-07-13T01:20:58;17.20;99.90
53264;DHT22;39153;52.680;6.172;2023-07-13T01:23:25;17.20;99.90
53264;DHT22;39153;52.680;6.172;2023-07-13T01:25:52;17.20;99.90
53264;DHT22;39153;52.680;6.172;2023-07-13T01:28:18;17.20;99.90
53264;DHT22;39153;52.680;6.172;2023-07-13T01:30:45;17.20;99.90
53264;DHT22;39153;52.680;6.172;2023-07-13T01:33:13;17.20;99.90
53264;DHT22;39153;52.680;6.172;2023-07-13T01:35:39;17.20;99.90
53264;DHT22;39153;52.680;6.172;2023-07-13T01:38:05;17.10;99.90
53264;DHT22;39153;52.680;6.172;2023-07-13T01:40:31;17.10;99.90
53264;DHT22;39153;52.680;6.172;2023-07-13T01:42:58;17.00;99.90
53264;DHT22;39153;52.680;6.172;2023-07-13T01:45:24;17.00;99.90
53264;DHT22;39153;52.680;6.172;2023-07-13T01:47:50;16.90;99.90
53264;DHT22;39153;52.680;6.172;2023-07-13T01:50:15;16.90;99.90
53264;DHT22;39153;52.680;6.172;2023-07-13T01:52:41;16.80;99.90
53264;DHT22;39153;52.680;6.172;2023-07-13T01:55:07;16.80;99.90
53264;DHT22;39153;52.680;6.172;2023-07-13T01:57:33;16.80;99.90
53264;DHT22;39153;52.680;6.172;2023-07-13T02:00:01;16.70;99.90
53264;DHT22;39153;52.680;6.172;2023-07-13T02:02:26;16.70;99.90
53264;DHT22;39153;52.680;6.172;2023-07-13T02:04:52;16.70;99.90
53264;DHT22;39153;52.680;6.172;2023-07-13T02:07:18;16.60;99.90
53264;DHT22;39153;52.680;6.172;2023-07-13T02:09:43;16.60;99.90
53264;DHT22;39153;52.680;6.172;2023-07-13T02:12:09;16.50;99.90
53264;DHT22;39153;52.680;6.172;2023-07-13T02:14:35;16.50;99.90
53264;DHT22;39153;52.680;6.172;2023-07-13T02:17:00;16.50;99.90
53264;DHT22;39153;52.680;6.172;2023-07-13T02:19:26;16.40;99.90
53264;DHT22;39153;52.680;6.172;2023-07-13T02:21:52;16.40;99.90
53264;DHT22;39153;52.680;6.172;2023-07-13T02:24:17;16.40;99.90
53264;DHT22;39153;52.680;6.172;2023-07-13T02:26:45;16.40;99.90
53264;DHT22;39153;52.680;6.172;2023-07-13T02:29:11;16.40;99.90
53264;DHT22;39153;52.680;6.172;2023-07-13T02:31:37;16.40;99.90
53264;DHT22;39153;52.680;6.172;2023-07-13T02:34:04;16.40;99.90
53264;DHT22;39153;52.680;6.172;2023-07-13T02:36:30;16.30;99.90
53264;DHT22;39153;52.680;6.172;2023-07-13T02:39:00;16.30;99.90
53264;DHT22;39153;52.680;6.172;2023-07-13T02:41:26;16.30;99.90
53264;DHT22;39153;52.680;6.172;2023-07-13T02:43:52;16.20;99.90
53264;DHT22;39153;52.680;6.172;2023-07-13T02:46:18;16.20;99.90
53264;DHT22;39153;52.680;6.172;2023-07-13T02:48:45;16.20;99.90
53264;DHT22;39153;52.680;6.172;2023-07-13T02:51:11;16.20;99.90
53264;DHT22;39153;52.680;6.172;2023-07-13T02:53:37;16.30;99.90
53264;DHT22;39153;52.680;6.172;2023-07-13T02:56:04;16.30;99.90
53264;DHT22;39153;52.680;6.172;2023-07-13T02:58:30;16.30;99.90
53264;DHT22;39153;52.680;6.172;2023-07-13T03:00:57;16.30;99.90
53264;DHT22;39153;52.680;6.172;2023-07-13T03:03:23;16.30;99.90
53264;DHT22;39153;52.680;6.172;2023-07-13T03:05:58;16.30;99.90
53264;DHT22;39153;52.680;6.172;2023-07-13T03:08:25;16.30;99.90
53264;DHT22;39153;52.680;6.172;2023-07-13T03:13:26;16.30;99.90
53264;DHT22;39153;52.680;6.172;2023-07-13T03:15:52;16.30;99.90
53264;DHT22;39153;52.680;6.172;2023-07-13T03:18:17;16.30;99.90
53264;DHT22;39153;52.680;6.172;2023-07-13T03:20:43;16.30;99.90
53264;DHT22;39153;52.680;6.172;2023-07-13T03:23:09;16.20;99.90
53264;DHT22;39153;52.680;6.172;2023-07-13T03:25:35;16.30;99.90
53264;DHT22;39153;52.680;6.172;2023-07-13T03:28:00;16.20;99.90
53264;DHT22;39153;52.680;6.172;2023-07-13T03:30:26;16.20;99.90
53264;DHT22;39153;52.680;6.172;2023-07-13T03:32:52;16.20;99.90
53264;DHT22;39153;52.680;6.172;2023-07-13T03:35:17;16.20;99.90
53264;DHT22;39153;52.680;6.172;2023-07-13T03:37:43;16.20;99.90
53264;DHT22;39153;52.680;6.172;2023-07-13T03:40:10;16.10;99.90
53264;DHT22;39153;52.680;6.172;2023-07-13T03:42:36;16.10;99.90
53264;DHT22;39153;52.680;6.172;2023-07-13T03:45:01;16.00;99.90
53264;DHT22;39153;52.680;6.172;2023-07-13T03:47:27;16.00;99.90
53264;DHT22;39153;52.680;6.172;2023-07-13T03:49:53;16.00;99.90
53264;DHT22;39153;52.680;6.172;2023-07-13T03:52:19;16.00;99.90
53264;DHT22;39153;52.680;6.172;2023-07-13T03:54:44;16.00;99.90
53264;DHT22;39153;52.680;6.172;2023-07-13T03:57:10;15.90;99.90
53264;DHT22;39153;52.680;6.172;2023-07-13T03:59:36;15.90;99.90
53264;DHT22;39153;52.680;6.172;2023-07-13T04:02:02;15.90;99.90
53264;DHT22;39153;52.680;6.172;2023-07-13T04:04:29;15.80;99.90
53264;DHT22;39153;52.680;6.172;2023-07-13T04:06:59;15.80;99.90
53264;DHT22;39153;52.680;6.172;2023-07-13T04:09:25;15.80;99.90
53264;DHT22;39153;52.680;6.172;2023-07-13T04:11:51;15.80;99.90
53264;DHT22;39153;52.680;6.172;2023-07-13T04:14:17;15.80;99.90
53264;DHT22;39153;52.680;6.172;2023-07-13T04:16:43;15.80;99.90
53264;DHT22;39153;52.680;6.172;2023-07-13T04:19:09;15.70;99.90
53264;DHT22;39153;52.680;6.172;2023-07-13T04:21:36;15.70;99.90
53264;DHT22;39153;52.680;6.172;2023-07-13T04:24:02;15.80;99.90
53264;DHT22;39153;52.680;6.172;2023-07-13T04:26:28;15.70;99.90
53264;DHT22;39153;52.680;6.172;2023-07-13T04:28:54;15.70;99.90
53264;DHT22;39153;52.680;6.172;2023-07-13T04:31:20;15.70;99.90
53264;DHT22;39153;52.680;6.172;2023-07-13T04:33:46;15.70;99.90
53264;DHT22;39153;52.680;6.172;2023-07-13T04:36:12;15.70;99.90
53264;DHT22;39153;52.680;6.172;2023-07-13T04:38:38;15.80;99.90
53264;DHT22;39153;52.680;6.172;2023-07-13T04:41:06;15.80;99.90
53264;DHT22;39153;52.680;6.172;2023-07-13T04:43:32;15.80;99.90
53264;DHT22;39153;52.680;6.172;2023-07-13T04:46:04;15.90;99.90
53264;DHT22;39153;52.680;6.172;2023-07-13T04:48:31;15.80;99.90
53264;DHT22;39153;52.680;6.172;2023-07-13T04:50:58;15.90;99.90
53264;DHT22;39153;52.680;6.172;2023-07-13T04:53:24;15.90;99.90
53264;DHT22;39153;52.680;6.172;2023-07-13T04:55:50;15.90;99.90
53264;DHT22;39153;52.680;6.172;2023-07-13T04:58:16;16.00;99.90
53264;DHT22;39153;52.680;6.172;2023-07-13T05:00:41;16.00;99.90
53264;DHT22;39153;52.680;6.172;2023-07-13T05:03:07;16.00;99.90
53264;DHT22;39153;52.680;6.172;2023-07-13T05:05:33;16.00;99.90
53264;DHT22;39153;52.680;6.172;2023-07-13T05:07:59;16.00;99.90
53264;DHT22;39153;52.680;6.172;2023-07-13T05:10:25;16.00;99.90
53264;DHT22;39153;52.680;6.172;2023-07-13T05:12:51;16.00;99.90
53264;DHT22;39153;52.680;6.172;2023-07-13T05:15:16;16.00;99.90
53264;DHT22;39153;52.680;6.172;2023-07-13T05:17:49;16.10;99.90
53264;DHT22;39153;52.680;6.172;2023-07-13T05:20:16;16.10;99.90
53264;DHT22;39153;52.680;6.172;2023-07-13T05:22:43;16.10;99.90
53264;DHT22;39153;52.680;6.172;2023-07-13T05:25:09;16.20;99.90
53264;DHT22;39153;52.680;6.172;2023-07-13T05:27:35;16.20;99.90
53264;DHT22;39153;52.680;6.172;2023-07-13T05:30:02;16.30;99.90
53264;DHT22;39153;52.680;6.172;2023-07-13T05:32:29;16.30;99.90
53264;DHT22;39153;52.680;6.172;2023-07-13T05:34:54;16.40;99.90
53264;DHT22;39153;52.680;6.172;2023-07-13T05:37:20;16.40;99.90
53264;DHT22;39153;52.680;6.172;2023-07-13T05:39:46;16.40;99.90
53264;DHT22;39153;52.680;6.172;2023-07-13T05:42:12;16.50;99.90
53264;DHT22;39153;52.680;6.172;2023-07-13T05:44:37;16.60;99.90
53264;DHT22;39153;52.680;6.172;2023-07-13T05:47:03;16.60;99.90
53264;DHT22;39153;52.680;6.172;2023-07-13T05:49:29;16.70;99.90
53264;DHT22;39153;52.680;6.172;2023-07-13T05:51:56;16.70;99.90
53264;DHT22;39153;52.680;6.172;2023-07-13T05:54:22;16.80;99.90
53264;DHT22;39153;52.680;6.172;2023-07-13T05:56:47;16.90;99.90
53264;DHT22;39153;52.680;6.172;2023-07-13T05:59:13;17.00;99.90
53264;DHT22;39153;52.680;6.172;2023-07-13T06:01:39;17.10;99.90
53264;DHT22;39153;52.680;6.172;2023-07-13T06:04:05;17.30;99.90
53264;DHT22;39153;52.680;6.172;2023-07-13T06:06:30;17.30;99.90
53264;DHT22;39153;52.680;6.172;2023-07-13T06:08:56;17.40;99.90
53264;DHT22;39153;52.680;6.172;2023-07-13T06:11:24;17.50;99.90
53264;DHT22;39153;52.680;6.172;2023-07-13T06:13:50;17.60;99.90
53264;DHT22;39153;52.680;6.172;2023-07-13T06:16:16;17.60;99.90
53264;DHT22;39153;52.680;6.172;2023-07-13T06:18:42;17.60;99.90
53264;DHT22;39153;52.680;6.172;2023-07-13T06:21:20;17.60;99.90
53264;DHT22;39153;52.680;6.172;2023-07-13T06:23:47;17.60;99.90
53264;DHT22;39153;52.680;6.172;2023-07-13T06:26:16;17.60;99.90
53264;DHT22;39153;52.680;6.172;2023-07-13T06:28:43;17.70;99.90
53264;DHT22;39153;52.680;6.172;2023-07-13T06:31:10;17.70;99.90
53264;DHT22;39153;52.680;6.172;2023-07-13T06:33:37;17.70;99.90
53264;DHT22;39153;52.680;6.172;2023-07-13T06:36:04;17.80;99.90
53264;DHT22;39153;52.680;6.172;2023-07-13T06:38:30;17.90;99.90
53264;DHT22;39153;52.680;6.172;2023-07-13T06:40:56;17.90;99.90
53264;DHT22;39153;52.680;6.172;2023-07-13T06:43:22;17.90;99.90
53264;DHT22;39153;52.680;6.172;2023-07-13T06:45:50;17.90;99.90
53264;DHT22;39153;52.680;6.172;2023-07-13T06:48:17;17.80;99.90
53264;DHT22;39153;52.680;6.172;2023-07-13T06:50:44;17.80;99.90
53264;DHT22;39153;52.680;6.172;2023-07-13T06:53:10;17.70;99.90
53264;DHT22;39153;52.680;6.172;2023-07-13T06:55:36;17.90;99.90
53264;DHT22;39153;52.680;6.172;2023-07-13T06:58:03;17.90;99.90
53264;DHT22;39153;52.680;6.172;2023-07-13T07:00:28;17.90;99.90
53264;DHT22;39153;52.680;6.172;2023-07-13T07:02:54;17.90;99.90
53264;DHT22;39153;52.680;6.172;2023-07-13T07:05:20;18.00;99.90
53264;DHT22;39153;52.680;6.172;2023-07-13T07:07:49;18.10;99.90
53264;DHT22;39153;52.680;6.172;2023-07-13T07:10:15;18.10;99.90
53264;DHT22;39153;52.680;6.172;2023-07-13T07:12:40;18.10;99.90
53264;DHT22;39153;52.680;6.172;2023-07-13T07:15:06;18.10;99.90
53264;DHT22;39153;52.680;6.172;2023-07-13T07:17:32;18.20;99.90
53264;DHT22;39153;52.680;6.172;2023-07-13T07:19:58;18.20;99.90
53264;DHT22;39153;52.680;6.172;2023-07-13T07:22:23;18.20;99.90
53264;DHT22;39153;52.680;6.172;2023-07-13T07:24:52;18.30;99.90
53264;DHT22;39153;52.680;6.172;2023-07-13T07:27:18;18.40;99.90
53264;DHT22;39153;52.680;6.172;2023-07-13T07:29:44;18.40;99.90
53264;DHT22;39153;52.680;6.172;2023-07-13T07:32:09;18.50;99.90
53264;DHT22;39153;52.680;6.172;2023-07-13T07:34:35;18.60;99.90
53264;DHT22;39153;52.680;6.172;2023-07-13T07:37:02;18.70;99.90
53264;DHT22;39153;52.680;6.172;2023-07-13T07:39:28;18.90;99.90
53264;DHT22;39153;52.680;6.172;2023-07-13T07:41:54;18.90;99.90
53264;DHT22;39153;52.680;6.172;2023-07-13T07:44:20;18.90;99.90
53264;DHT22;39153;52.680;6.172;2023-07-13T07:46:45;19.00;99.90
53264;DHT22;39153;52.680;6.172;2023-07-13T07:49:11;19.10;99.90
53264;DHT22;39153;52.680;6.172;2023-07-13T07:51:37;19.10;99.90
53264;DHT22;39153;52.680;6.172;2023-07-13T07:54:04;19.30;99.90
53264;DHT22;39153;52.680;6.172;2023-07-13T07:56:30;19.30;99.90
53264;DHT22;39153;52.680;6.172;2023-07-13T07:58:56;19.40;99.90
53264;DHT22;39153;52.680;6.172;2023-07-13T08:01:22;19.50;99.90
53264;DHT22;39153;52.680;6.172;2023-07-13T08:03:48;19.50;99.90
53264;DHT22;39153;52.680;6.172;2023-07-13T08:06:14;19.50;99.90
53264;DHT22;39153;52.680;6.172;2023-07-13T08:08:40;19.50;99.90
53264;DHT22;39153;52.680;6.172;2023-07-13T08:11:07;19.50;99.90
53264;DHT22;39153;52.680;6.172;2023-07-13T08:13:34;19.50;99.90
53264;DHT22;39153;52.680;6.172;2023-07-13T08:15:59;19.50;99.90
53264;DHT22;39153;52.680;6.172;2023-07-13T08:18:25;19.60;99.90
53264;DHT22;39153;52.680;6.172;2023-07-13T08:20:51;19.70;99.90
53264;DHT22;39153;52.680;6.172;2023-07-13T08:23:17;19.70;99.90
53264;DHT22;39153;52.680;6.172;2023-07-13T08:25:51;19.70;99.90
53264;DHT22;39153;52.680;6.172;2023-07-13T08:28:17;19.70;99.90
53264;DHT22;39153;52.680;6.172;2023-07-13T08:30:42;19.60;99.90
53264;DHT22;39153;52.680;6.172;2023-07-13T08:33:08;19.60;99.90
53264;DHT22;39153;52.680;6.172;2023-07-13T08:35:34;19.50;99.90
53264;DHT22;39153;52.680;6.172;2023-07-13T08:37:59;19.20;99.90
53264;DHT22;39153;52.680;6.172;2023-07-13T08:40:27;18.90;99.90
53264;DHT22;39153;52.680;6.172;2023-07-13T08:43:01;18.20;99.90
53264;DHT22;39153;52.680;6.172;2023-07-13T08:45:43;17.40;99.90
53264;DHT22;39153;52.680;6.172;2023-07-13T08:48:15;16.70;99.90
53264;DHT22;39153;52.680;6.172;2023-07-13T08:50:51;16.00;99.90
53264;DHT22;39153;52.680;6.172;2023-07-13T08:53:21;15.70;99.90
53264;DHT22;39153;52.680;6.172;2023-07-13T08:55:54;15.50;99.90
53264;DHT22;39153;52.680;6.172;2023-07-13T08:58:23;15.30;99.90
53264;DHT22;39153;52.680;6.172;2023-07-13T09:03:25;15.20;99.90
53264;DHT22;39153;52.680;6.172;2023-07-13T09:05:58;15.00;99.90
53264;DHT22;39153;52.680;6.172;2023-07-13T09:08:33;15.10;99.90
53264;DHT22;39153;52.680;6.172;2023-07-13T09:13:58;15.10;99.90
53264;DHT22;39153;52.680;6.172;2023-07-13T09:16:27;15.00;99.90
53264;DHT22;39153;52.680;6.172;2023-07-13T09:18:57;15.10;99.90
53264;DHT22;39153;52.680;6.172;2023-07-13T09:21:38;15.20;99.90
53264;DHT22;39153;52.680;6.172;2023-07-13T09:24:38;15.40;99.90
53264;DHT22;39153;52.680;6.172;2023-07-13T09:27:22;15.70;99.90
53264;DHT22;39153;52.680;6.172;2023-07-13T09:30:00;15.60;99.90
53264;DHT22;39153;52.680;6.172;2023-07-13T09:32:27;15.40;99.90
53264;DHT22;39153;52.680;6.172;2023-07-13T09:34:55;15.60;99.90
53264;DHT22;39153;52.680;6.172;2023-07-13T09:37:24;16.00;99.90
53264;DHT22;39153;52.680;6.172;2023-07-13T09:39:54;15.90;99.90
53264;DHT22;39153;52.680;6.172;2023-07-13T09:42:22;16.70;99.90
53264;DHT22;39153;52.680;6.172;2023-07-13T09:44:53;16.40;99.90
53264;DHT22;39153;52.680;6.172;2023-07-13T09:47:23;16.40;99.90
53264;DHT22;39153;52.680;6.172;2023-07-13T09:50:06;16.40;99.90
53264;DHT22;39153;52.680;6.172;2023-07-13T09:52:44;16.90;99.90
53264;DHT22;39153;52.680;6.172;2023-07-13T09:55:37;17.40;99.90
53264;DHT22;39153;52.680;6.172;2023-07-13T09:58:08;17.70;99.90
53264;DHT22;39153;52.680;6.172;2023-07-13T10:00:36;18.10;99.90
53264;DHT22;39153;52.680;6.172;2023-07-13T10:03:21;18.30;99.90
53264;DHT22;39153;52.680;6.172;2023-07-13T10:05:49;18.50;99.90
53264;DHT22;39153;52.680;6.172;2023-07-13T10:08:28;19.10;99.90
53264;DHT22;39153;52.680;6.172;2023-07-13T10:11:00;18.80;99.90
53264;DHT22;39153;52.680;6.172;2023-07-13T10:15:55;19.00;99.90
53264;DHT22;39153;52.680;6.172;2023-07-13T10:18:24;19.00;99.90
53264;DHT22;39153;52.680;6.172;2023-07-13T10:21:15;19.00;99.90
53264;DHT22;39153;52.680;6.172;2023-07-13T10:23:39;18.90;99.90
53264;DHT22;39153;52.680;6.172;2023-07-13T10:26:13;18.70;99.90
53264;DHT22;39153;52.680;6.172;2023-07-13T10:28:41;18.60;99.90
53264;DHT22;39153;52.680;6.172;2023-07-13T10:31:13;18.40;99.90
53264;DHT22;39153;52.680;6.172;2023-07-13T10:33:40;18.30;99.90
53264;DHT22;39153;52.680;6.172;2023-07-13T10:36:21;18.10;99.90
53264;DHT22;39153;52.680;6.172;2023-07-13T10:38:50;18.00;99.90
53264;DHT22;39153;52.680;6.172;2023-07-13T10:41:21;17.60;99.90
53264;DHT22;39153;52.680;6.172;2023-07-13T10:43:51;17.60;99.90
53264;DHT22;39153;52.680;6.172;2023-07-13T10:46:20;17.30;99.90
53264;DHT22;39153;52.680;6.172;2023-07-13T10:48:50;17.30;99.90
53264;DHT22;39153;52.680;6.172;2023-07-13T10:51:18;17.40;99.90
53264;DHT22;39153;52.680;6.172;2023-07-13T10:53:47;17.40;99.90
53264;DHT22;39153;52.680;6.172;2023-07-13T10:56:30;17.30;99.90
53264;DHT22;39153;52.680;6.172;2023-07-13T10:59:34;17.30;99.90
53264;DHT22;39153;52.680;6.172;2023-07-13T11:04:41;17.80;99.90
53264;DHT22;39153;52.680;6.172;2023-07-13T11:07:20;18.10;99.90
53264;DHT22;39153;52.680;6.172;2023-07-13T11:09:51;18.40;99.90
53264;DHT22;39153;52.680;6.172;2023-07-13T11:17:34;18.90;99.90
53264;DHT22;39153;52.680;6.172;2023-07-13T11:20:20;19.00;99.90
53264;DHT22;39153;52.680;6.172;2023-07-13T11:25:36;19.60;99.90
53264;DHT22;39153;52.680;6.172;2023-07-13T11:35:51;20.60;99.90
53264;DHT22;39153;52.680;6.172;2023-07-13T11:38:21;20.60;99.90
53264;DHT22;39153;52.680;6.172;2023-07-13T11:40:49;20.60;99.90
53264;DHT22;39153;52.680;6.172;2023-07-13T11:43:16;20.70;99.90
53264;DHT22;39153;52.680;6.172;2023-07-13T11:45:45;20.60;99.90
53264;DHT22;39153;52.680;6.172;2023-07-13T11:48:29;20.60;99.90
53264;DHT22;39153;52.680;6.172;2023-07-13T11:51:04;20.60;99.90
53264;DHT22;39153;52.680;6.172;2023-07-13T11:53:44;20.60;99.90
53264;DHT22;39153;52.680;6.172;2023-07-13T11:56:10;20.70;99.90
53264;DHT22;39153;52.680;6.172;2023-07-13T11:58:36;20.90;99.90
53264;DHT22;39153;52.680;6.172;2023-07-13T12:01:02;21.10;99.90
53264;DHT22;39153;52.680;6.172;2023-07-13T12:03:32;21.20;99.90
53264;DHT22;39153;52.680;6.172;2023-07-13T12:06:01;21.30;99.90
53264;DHT22;39153;52.680;6.172;2023-07-13T12:08:28;21.30;99.90
53264;DHT22;39153;52.680;6.172;2023-07-13T12:11:04;21.40;99.90
53264;DHT22;39153;52.680;6.172;2023-07-13T12:13:38;21.60;99.90
53264;DHT22;39153;52.680;6.172;2023-07-13T12:16:10;21.70;99.90
53264;DHT22;39153;52.680;6.172;2023-07-13T12:18:37;21.80;99.90
53264;DHT22;39153;52.680;6.172;2023-07-13T12:21:04;21.90;99.90
53264;DHT22;39153;52.680;6.172;2023-07-13T12:23:33;21.90;99.90
53264;DHT22;39153;52.680;6.172;2023-07-13T12:26:03;22.00;99.90
53264;DHT22;39153;52.680;6.172;2023-07-13T12:28:52;22.30;99.90
53264;DHT22;39153;52.680;6.172;2023-07-13T12:34:14;22.40;99.90
53264;DHT22;39153;52.680;6.172;2023-07-13T12:39:36;22.40;99.90
53264;DHT22;39153;52.680;6.172;2023-07-13T12:42:27;22.50;99.90
53264;DHT22;39153;52.680;6.172;2023-07-13T12:45:02;22.60;99.90
53264;DHT22;39153;52.680;6.172;2023-07-13T12:47:30;22.70;99.90
53264;DHT22;39153;52.680;6.172;2023-07-13T12:49:58;22.60;99.90
53264;DHT22;39153;52.680;6.172;2023-07-13T12:52:30;22.70;99.90
53264;DHT22;39153;52.680;6.172;2023-07-13T12:55:07;22.80;99.90
53264;DHT22;39153;52.680;6.172;2023-07-13T12:57:49;22.70;99.90
53264;DHT22;39153;52.680;6.172;2023-07-13T13:02:54;23.10;99.90
53264;DHT22;39153;52.680;6.172;2023-07-13T13:05:21;23.10;99.90
53264;DHT22;39153;52.680;6.172;2023-07-13T13:07:49;23.10;99.90
53264;DHT22;39153;52.680;6.172;2023-07-13T13:10:15;23.20;99.90
53264;DHT22;39153;52.680;6.172;2023-07-13T13:12:41;23.30;99.90
53264;DHT22;39153;52.680;6.172;2023-07-13T13:15:10;23.40;99.90
53264;DHT22;39153;52.680;6.172;2023-07-13T13:17:37;23.30;99.90
53264;DHT22;39153;52.680;6.172;2023-07-13T13:20:20;23.30;99.90
53264;DHT22;39153;52.680;6.172;2023-07-13T13:22:47;23.40;99.90
53264;DHT22;39153;52.680;6.172;2023-07-13T13:25:14;23.30;99.90
53264;DHT22;39153;52.680;6.172;2023-07-13T13:27:43;23.00;99.90
53264;DHT22;39153;52.680;6.172;2023-07-13T13:30:14;22.70;99.90
53264;DHT22;39153;52.680;6.172;2023-07-13T13:32:42;22.40;99.90
53264;DHT22;39153;52.680;6.172;2023-07-13T13:35:20;22.10;99.90
53264;DHT22;39153;52.680;6.172;2023-07-13T13:37:47;21.90;99.90
53264;DHT22;39153;52.680;6.172;2023-07-13T13:40:21;21.80;99.90
53264;DHT22;39153;52.680;6.172;2023-07-13T13:42:48;21.70;99.90
53264;DHT22;39153;52.680;6.172;2023-07-13T13:45:14;21.80;99.90
53264;DHT22;39153;52.680;6.172;2023-07-13T13:47:43;21.80;99.90
53264;DHT22;39153;52.680;6.172;2023-07-13T13:50:12;21.70;99.90
53264;DHT22;39153;52.680;6.172;2023-07-13T13:52:40;21.60;99.90
53264;DHT22;39153;52.680;6.172;2023-07-13T13:55:18;21.50;99.90
53264;DHT22;39153;52.680;6.172;2023-07-13T13:57:45;21.50;99.90
53264;DHT22;39153;52.680;6.172;2023-07-13T14:00:12;21.40;99.90
53264;DHT22;39153;52.680;6.172;2023-07-13T14:02:41;21.50;99.90
53264;DHT22;39153;52.680;6.172;2023-07-13T14:05:11;21.70;99.90
53264;DHT22;39153;52.680;6.172;2023-07-13T14:07:37;22.10;99.90
53264;DHT22;39153;52.680;6.172;2023-07-13T14:10:12;22.50;99.90
53264;DHT22;39153;52.680;6.172;2023-07-13T14:12:39;22.80;99.90
53264;DHT22;39153;52.680;6.172;2023-07-13T14:15:05;23.10;99.90
53264;DHT22;39153;52.680;6.172;2023-07-13T14:17:31;23.20;99.90
53264;DHT22;39153;52.680;6.172;2023-07-13T14:19:57;23.30;99.90
53264;DHT22;39153;52.680;6.172;2023-07-13T14:22:27;23.40;99.90
53264;DHT22;39153;52.680;6.172;2023-07-13T14:24:53;23.60;99.90
53264;DHT22;39153;52.680;6.172;2023-07-13T14:27:20;23.60;99.90
53264;DHT22;39153;52.680;6.172;2023-07-13T14:29:46;23.80;99.90
53264;DHT22;39153;52.680;6.172;2023-07-13T14:32:12;23.70;99.90
53264;DHT22;39153;52.680;6.172;2023-07-13T14:34:39;23.80;99.90
53264;DHT22;39153;52.680;6.172;2023-07-13T14:37:05;24.00;99.90
53264;DHT22;39153;52.680;6.172;2023-07-13T14:39:33;24.00;99.90
53264;DHT22;39153;52.680;6.172;2023-07-13T14:41:59;23.80;99.90
53264;DHT22;39153;52.680;6.172;2023-07-13T14:44:27;23.50;99.90
53264;DHT22;39153;52.680;6.172;2023-07-13T14:47:02;23.30;99.90
53264;DHT22;39153;52.680;6.172;2023-07-13T14:49:41;23.10;99.90
53264;DHT22;39153;52.680;6.172;2023-07-13T14:52:13;22.90;99.90
53264;DHT22;39153;52.680;6.172;2023-07-13T14:54:41;22.80;99.90
53264;DHT22;39153;52.680;6.172;2023-07-13T14:57:10;23.00;99.90
53264;DHT22;39153;52.680;6.172;2023-07-13T14:59:36;23.10;99.90
53264;DHT22;39153;52.680;6.172;2023-07-13T15:02:02;23.20;99.90
53264;DHT22;39153;52.680;6.172;2023-07-13T15:04:29;23.30;99.90
53264;DHT22;39153;52.680;6.172;2023-07-13T15:09:22;23.70;99.90
53264;DHT22;39153;52.680;6.172;2023-07-13T15:11:52;24.10;99.90
53264;DHT22;39153;52.680;6.172;2023-07-13T15:14:18;24.20;99.90
53264;DHT22;39153;52.680;6.172;2023-07-13T15:16:45;24.10;99.90
53264;DHT22;39153;52.680;6.172;2023-07-13T15:19:11;24.00;99.90
53264;DHT22;39153;52.680;6.172;2023-07-13T15:21:37;23.90;99.90
53264;DHT22;39153;52.680;6.172;2023-07-13T15:24:03;23.90;99.90
53264;DHT22;39153;52.680;6.172;2023-07-13T15:26:29;24.10;99.90
53264;DHT22;39153;52.680;6.172;2023-07-13T15:28:55;24.50;99.90
53264;DHT22;39153;52.680;6.172;2023-07-13T15:31:23;24.80;99.90
53264;DHT22;39153;52.680;6.172;2023-07-13T15:33:51;25.00;99.90
53264;DHT22;39153;52.680;6.172;2023-07-13T15:36:19;25.10;99.90
53264;DHT22;39153;52.680;6.172;2023-07-13T15:38:45;25.10;99.90
53264;DHT22;39153;52.680;6.172;2023-07-13T15:41:23;25.20;99.90
53264;DHT22;39153;52.680;6.172;2023-07-13T15:43:51;25.60;99.90
53264;DHT22;39153;52.680;6.172;2023-07-13T15:46:19;25.80;99.90
53264;DHT22;39153;52.680;6.172;2023-07-13T15:48:46;26.00;99.90
53264;DHT22;39153;52.680;6.172;2023-07-13T15:51:38;26.00;99.90
53264;DHT22;39153;52.680;6.172;2023-07-13T15:54:05;26.00;99.90
53264;DHT22;39153;52.680;6.172;2023-07-13T15:56:36;25.90;99.80
53264;DHT22;39153;52.680;6.172;2023-07-13T15:59:02;25.90;99.40
53264;DHT22;39153;52.680;6.172;2023-07-13T16:01:29;25.90;99.20
53264;DHT22;39153;52.680;6.172;2023-07-13T16:03:55;25.70;99.50
53264;DHT22;39153;52.680;6.172;2023-07-13T16:06:27;25.70;99.00
53264;DHT22;39153;52.680;6.172;2023-07-13T16:08:53;25.60;99.70
53264;DHT22;39153;52.680;6.172;2023-07-13T16:11:29;25.80;99.40
53264;DHT22;39153;52.680;6.172;2023-07-13T16:13:56;26.00;98.80
53264;DHT22;39153;52.680;6.172;2023-07-13T16:16:27;26.00;98.30
53264;DHT22;39153;52.680;6.172;2023-07-13T16:18:59;26.00;98.10